createdAt,value
2023-02-26T00:02:56.141Z,10.84
2023-02-26T00:06:02.629Z,10.70
2023-02-26T00:09:11.031Z,11.02
2023-02-26T00:12:18.153Z,11.22
2023-02-26T00:15:25.111Z,10.81
2023-02-26T00:18:31.881Z,10.62
2023-02-26T00:21:38.487Z,10.75
2023-02-26T00:24:46.008Z,10.59
2023-02-26T00:27:53.141Z,10.79
2023-02-26T00:30:59.881Z,10.76
2023-02-26T00:34:06.457Z,10.54
2023-02-26T00:37:21.469Z,10.64
2023-02-26T00:40:37.976Z,10.94
2023-02-26T00:43:44.955Z,11.02
2023-02-26T00:46:57.350Z,10.82
2023-02-26T00:50:14.669Z,10.66
2023-02-26T00:53:27.649Z,10.54
2023-02-26T00:56:35.585Z,10.94
2023-02-26T00:59:41.915Z,10.83
2023-02-26T01:02:48.701Z,10.89
2023-02-26T01:05:55.325Z,11.14
2023-02-26T01:09:06.858Z,11.09
2023-02-26T01:12:17.523Z,10.93
2023-02-26T01:15:24.705Z,10.87
2023-02-26T01:18:39.791Z,10.78
2023-02-26T01:21:52.782Z,10.52
2023-02-26T01:25:06.274Z,10.61
2023-02-26T01:28:14.691Z,11.18
2023-02-26T01:31:34.352Z,10.72
2023-02-26T01:34:46.225Z,10.78
2023-02-26T01:37:58.767Z,10.54
2023-02-26T01:41:26.061Z,10.41
2023-02-26T01:44:41.556Z,10.37
2023-02-26T01:47:55.706Z,10.47
2023-02-26T01:51:01.790Z,10.86
2023-02-26T01:54:07.831Z,10.89
2023-02-26T01:57:18.533Z,10.95
2023-02-26T02:00:26.436Z,10.87
2023-02-26T02:03:36.963Z,11.02
2023-02-26T02:06:44.708Z,10.33
2023-02-26T02:09:51.005Z,10.23
2023-02-26T02:13:06.898Z,10.30
2023-02-26T02:16:21.619Z,10.19
2023-02-26T02:19:46.778Z,10.05
2023-02-26T02:23:09.494Z,10.17
2023-02-26T02:26:42.277Z,10.10
2023-02-26T02:30:04.128Z,10.11
2023-02-26T02:33:16.179Z,9.99
2023-02-26T02:36:37.675Z,10.11
2023-02-26T02:39:48.841Z,10.15
2023-02-26T02:43:00.590Z,10.32
2023-02-26T02:46:09.412Z,10.10
2023-02-26T02:49:23.582Z,10.44
2023-02-26T02:52:34.927Z,10.43
2023-02-26T02:55:47.918Z,10.52
2023-02-26T02:58:59.130Z,10.49
2023-02-26T03:02:15.693Z,10.69
2023-02-26T03:05:23.231Z,10.77
2023-02-26T03:08:31.619Z,10.82
2023-02-26T03:11:38.777Z,10.66
2023-02-26T03:14:44.778Z,10.59
2023-02-26T03:18:00.111Z,10.52
2023-02-26T03:21:14.114Z,10.47
2023-02-26T03:24:28.823Z,10.46
2023-02-26T03:27:40.884Z,10.31
2023-02-26T03:30:55.939Z,10.21
2023-02-26T03:34:07.103Z,10.04
2023-02-26T03:37:20.581Z,10.01
2023-02-26T03:40:30.557Z,9.99
2023-02-26T03:43:41.571Z,10.10
2023-02-26T03:46:51.008Z,10.20
2023-02-26T03:50:01.013Z,9.93
2023-02-26T03:53:15.860Z,10.26
2023-02-26T03:56:28.119Z,10.50
2023-02-26T03:59:36.108Z,10.42
2023-02-26T04:02:49.615Z,10.45
2023-02-26T04:05:56.878Z,10.41
2023-02-26T04:09:06.003Z,10.34
2023-02-26T04:12:12.654Z,10.33
2023-02-26T04:15:18.976Z,10.45
2023-02-26T04:18:25.554Z,10.47
2023-02-26T04:21:31.644Z,10.54
2023-02-26T04:24:39.506Z,10.64
2023-02-26T04:27:45.860Z,10.65
2023-02-26T04:30:52.381Z,10.71
2023-02-26T04:33:58.670Z,10.62
2023-02-26T04:37:04.867Z,10.63
2023-02-26T04:40:13.893Z,10.75
2023-02-26T04:43:20.652Z,10.63
2023-02-26T04:46:26.970Z,10.71
2023-02-26T04:49:33.202Z,10.77
2023-02-26T04:52:39.442Z,10.75
2023-02-26T04:55:51.942Z,10.61
2023-02-26T04:58:58.879Z,10.67
2023-02-26T05:02:04.762Z,10.61
2023-02-26T05:05:11.293Z,10.63
2023-02-26T05:08:17.182Z,10.61
2023-02-26T05:11:24.532Z,10.69
2023-02-26T05:14:30.434Z,10.66
2023-02-26T05:17:37.081Z,10.63
2023-02-26T05:20:43.162Z,10.71
2023-02-26T05:23:49.578Z,10.67
2023-02-26T05:26:57.116Z,10.78
2023-02-26T05:30:03.175Z,10.76
2023-02-26T05:33:09.648Z,10.63
2023-02-26T05:36:15.801Z,10.75
2023-02-26T05:39:21.947Z,10.81
2023-02-26T05:42:29.586Z,10.94
2023-02-26T05:45:35.924Z,10.94
2023-02-26T05:48:44.102Z,10.97
2023-02-26T05:51:51.386Z,10.84
2023-02-26T05:54:57.751Z,10.84
2023-02-26T05:58:05.210Z,10.99
2023-02-26T06:01:11.605Z,11.03
2023-02-26T06:04:17.954Z,10.86
2023-02-26T06:07:24.583Z,10.90
2023-02-26T06:10:30.907Z,10.88
2023-02-26T06:13:38.296Z,10.93
2023-02-26T06:16:44.675Z,10.90
2023-02-26T06:19:50.824Z,11.04
2023-02-26T06:22:56.967Z,11.00
2023-02-26T06:26:03.574Z,11.10
2023-02-26T06:29:11.346Z,11.10
2023-02-26T06:32:18.063Z,10.91
2023-02-26T06:35:24.498Z,11.11
2023-02-26T06:38:30.949Z,11.08
2023-02-26T06:41:37.319Z,11.01
2023-02-26T06:44:45.021Z,11.16
2023-02-26T06:47:51.312Z,11.19
2023-02-26T06:50:57.265Z,11.44
2023-02-26T06:54:03.640Z,11.52
2023-02-26T06:57:10.053Z,11.52
2023-02-26T07:00:18.434Z,11.51
2023-02-26T07:03:24.576Z,11.77
2023-02-26T07:06:30.790Z,11.78
2023-02-26T07:09:36.989Z,11.76
2023-02-26T07:12:43.003Z,11.66
2023-02-26T07:15:50.954Z,12.17
2023-02-26T07:18:57.310Z,12.05
2023-02-26T07:22:03.674Z,12.22
2023-02-26T07:25:10.640Z,12.32
2023-02-26T07:28:17.000Z,12.50
2023-02-26T07:31:24.589Z,13.19
2023-02-26T07:34:31.048Z,13.23
2023-02-26T07:37:37.120Z,13.17
2023-02-26T07:40:43.315Z,13.36
2023-02-26T07:43:49.611Z,13.35
2023-02-26T07:46:57.052Z,12.33
2023-02-26T07:50:03.606Z,13.40
2023-02-26T07:53:10.034Z,13.32
2023-02-26T07:56:16.388Z,13.60
2023-02-26T07:59:22.770Z,13.85
2023-02-26T08:02:30.661Z,13.61
2023-02-26T08:05:36.729Z,14.13
2023-02-26T08:08:42.588Z,14.03
2023-02-26T08:11:48.821Z,14.13
2023-02-26T08:14:54.668Z,14.28
2023-02-26T08:18:02.458Z,14.05
2023-02-26T08:21:08.917Z,13.90
2023-02-26T08:24:15.354Z,14.06
2023-02-26T08:27:21.705Z,14.28
2023-02-26T08:30:28.424Z,14.16
2023-02-26T08:33:36.280Z,13.80
2023-02-26T08:36:42.393Z,14.14
2023-02-26T08:39:48.949Z,14.16
2023-02-26T08:42:55.112Z,14.30
2023-02-26T08:46:01.037Z,14.40
2023-02-26T08:49:08.694Z,14.62
2023-02-26T08:52:15.483Z,14.66
2023-02-26T08:55:21.611Z,14.44
2023-02-26T08:58:27.848Z,14.31
2023-02-26T09:01:33.911Z,14.69
2023-02-26T09:04:41.468Z,14.67
2023-02-26T09:07:47.929Z,14.75
2023-02-26T09:10:54.468Z,14.24
2023-02-26T09:14:02.442Z,14.59
2023-02-26T09:17:08.744Z,14.38
2023-02-26T09:20:16.912Z,14.97
2023-02-26T09:23:23.016Z,15.05
2023-02-26T09:26:29.160Z,15.14
2023-02-26T09:29:35.585Z,15.10
2023-02-26T09:32:41.812Z,14.90
2023-02-26T09:35:51.576Z,15.13
2023-02-26T09:38:57.711Z,15.39
2023-02-26T09:42:12.549Z,15.30
2023-02-26T09:45:27.971Z,15.35
2023-02-26T09:48:38.589Z,14.93
2023-02-26T09:51:50.265Z,15.10
2023-02-26T09:55:00.228Z,14.94
2023-02-26T09:58:19.115Z,15.23
2023-02-26T10:01:30.994Z,14.65
2023-02-26T10:04:51.238Z,14.76
2023-02-26T10:08:03.356Z,14.66
2023-02-26T10:11:27.299Z,15.04
2023-02-26T10:14:37.354Z,15.99
2023-02-26T10:17:55.278Z,16.06
2023-02-26T10:21:05.518Z,15.47
2023-02-26T10:24:21.860Z,15.27
2023-02-26T10:27:41.844Z,14.96
2023-02-26T10:30:57.084Z,14.89
2023-02-26T10:34:18.752Z,15.05
2023-02-26T10:37:35.288Z,15.24
2023-02-26T10:40:50.350Z,15.26
2023-02-26T10:44:05.878Z,15.44
2023-02-26T10:47:24.015Z,15.31
2023-02-26T10:50:31.094Z,14.96
2023-02-26T10:53:40.392Z,15.08
2023-02-26T10:56:48.279Z,15.51
2023-02-26T10:59:54.403Z,16.21
2023-02-26T11:03:04.959Z,16.03
2023-02-26T11:06:16.945Z,16.45
2023-02-26T11:09:27.273Z,16.28
2023-02-26T11:12:35.062Z,15.35
2023-02-26T11:15:41.813Z,15.42
2023-02-26T11:18:51.178Z,15.33
2023-02-26T11:21:57.890Z,14.94
2023-02-26T11:25:04.529Z,14.67
2023-02-26T11:28:25.524Z,14.52
2023-02-26T11:31:32.187Z,14.85
2023-02-26T11:34:40.494Z,14.77
2023-02-26T11:37:50.338Z,15.03
2023-02-26T11:40:58.977Z,14.84
2023-02-26T11:44:09.202Z,14.36
2023-02-26T11:47:17.917Z,14.77
2023-02-26T11:50:26.060Z,14.30
2023-02-26T11:53:35.188Z,14.70
2023-02-26T11:56:43.809Z,14.23
2023-02-26T11:59:54.033Z,14.39
2023-02-26T12:03:04.611Z,14.05
2023-02-26T12:06:18.611Z,14.23
2023-02-26T12:09:27.900Z,14.13
2023-02-26T12:12:50.391Z,14.12
2023-02-26T12:16:03.720Z,13.94
2023-02-26T12:19:17.697Z,13.87
2023-02-26T12:22:54.799Z,13.93
2023-02-26T12:26:17.616Z,14.25
2023-02-26T12:30:01.425Z,14.35
2023-02-26T12:33:22.419Z,14.24
2023-02-26T12:36:49.267Z,14.16
2023-02-26T12:40:06.639Z,13.69
2023-02-26T12:43:16.584Z,13.97
2023-02-26T12:46:53.248Z,13.83
2023-02-26T12:50:23.588Z,13.43
2023-02-26T12:53:48.187Z,13.77
2023-02-26T12:57:33.585Z,14.03
2023-02-26T13:01:01.069Z,13.94
2023-02-26T13:04:37.098Z,13.79
2023-02-26T13:08:09.866Z,13.89
2023-02-26T13:11:29.478Z,13.72
2023-02-26T13:14:47.949Z,13.40
2023-02-26T13:18:03.002Z,13.35
2023-02-26T13:21:14.013Z,13.28
2023-02-26T13:24:25.375Z,13.24
2023-02-26T13:27:36.663Z,13.08
2023-02-26T13:30:51.697Z,12.96
2023-02-26T13:34:02.724Z,13.09
2023-02-26T13:37:18.644Z,12.77
2023-02-26T13:40:47.381Z,12.75
2023-02-26T13:44:06.194Z,12.63
2023-02-26T13:47:28.893Z,12.86
2023-02-26T13:50:46.170Z,12.74
2023-02-26T13:53:59.895Z,12.70
2023-02-26T13:57:25.906Z,12.45
2023-02-26T14:00:36.118Z,12.57
2023-02-26T14:03:48.043Z,12.51
2023-02-26T14:06:55.038Z,12.66
2023-02-26T14:10:05.366Z,12.57
2023-02-26T14:13:16.897Z,12.49
2023-02-26T14:16:25.147Z,12.36
2023-02-26T14:19:37.572Z,12.32
2023-02-26T14:22:47.985Z,12.19
2023-02-26T14:25:55.216Z,12.26
2023-02-26T14:29:16.611Z,12.36
2023-02-26T14:32:31.357Z,12.22
2023-02-26T14:35:43.121Z,12.44
2023-02-26T14:38:51.652Z,12.48
2023-02-26T14:42:04.828Z,12.23
2023-02-26T14:45:31.855Z,12.28
2023-02-26T14:48:40.389Z,12.57
2023-02-26T14:52:00.418Z,12.47
2023-02-26T14:55:34.535Z,12.45
2023-02-26T14:59:01.348Z,12.66
2023-02-26T15:02:24.688Z,12.69
2023-02-26T15:05:45.917Z,12.70
2023-02-26T15:09:07.752Z,12.36
2023-02-26T15:12:28.378Z,12.68
2023-02-26T15:15:45.340Z,12.30
2023-02-26T15:19:15.366Z,12.44
2023-02-26T15:22:37.434Z,12.44
2023-02-26T15:25:46.322Z,12.49
2023-02-26T15:28:54.105Z,12.40
2023-02-26T15:32:03.472Z,12.12
2023-02-26T15:35:17.838Z,12.14
2023-02-26T15:38:24.921Z,12.35
2023-02-26T15:41:32.694Z,12.26
2023-02-26T15:44:47.976Z,12.05
2023-02-26T15:48:05.946Z,12.20
2023-02-26T15:51:16.152Z,12.29
2023-02-26T15:54:25.059Z,12.08
2023-02-26T15:57:32.420Z,12.15
2023-02-26T16:00:39.429Z,12.07
2023-02-26T16:03:45.947Z,12.07
2023-02-26T16:06:57.474Z,12.08
2023-02-26T16:10:08.889Z,12.11
2023-02-26T16:13:18.985Z,12.10
2023-02-26T16:16:29.366Z,11.94
2023-02-26T16:19:41.580Z,12.01
2023-02-26T16:22:51.476Z,12.06
2023-02-26T16:26:01.200Z,12.00
2023-02-26T16:29:12.865Z,12.01
2023-02-26T16:32:19.548Z,12.01
2023-02-26T16:35:34.934Z,12.08
2023-02-26T16:38:49.867Z,12.06
2023-02-26T16:42:17.040Z,12.06
2023-02-26T16:45:49.397Z,11.99
2023-02-26T16:49:00.014Z,12.14
2023-02-26T16:52:06.939Z,12.09
2023-02-26T16:55:18.627Z,12.11
2023-02-26T16:58:25.528Z,11.77
2023-02-26T17:01:37.704Z,11.93
2023-02-26T17:04:51.361Z,12.02
2023-02-26T17:08:10.910Z,11.97
2023-02-26T17:11:26.609Z,11.86
2023-02-26T17:14:40.366Z,11.87
2023-02-26T17:17:47.004Z,11.83
2023-02-26T17:20:53.186Z,11.97
2023-02-26T17:24:00.106Z,11.91
2023-02-26T17:27:09.462Z,11.89
2023-02-26T17:30:18.121Z,11.78
2023-02-26T17:33:24.516Z,11.71
2023-02-26T17:36:30.905Z,11.75
2023-02-26T17:39:37.445Z,11.79
2023-02-26T17:42:45.333Z,11.68
2023-02-26T17:45:52.085Z,11.64
2023-02-26T17:48:58.166Z,11.60
2023-02-26T17:52:04.364Z,11.62
2023-02-26T17:55:11.122Z,11.46
2023-02-26T17:58:21.288Z,11.49
2023-02-26T18:01:29.098Z,11.39
2023-02-26T18:04:35.691Z,11.36
2023-02-26T18:07:42.316Z,11.32
2023-02-26T18:10:48.197Z,11.38
2023-02-26T18:13:56.926Z,11.24
2023-02-26T18:17:03.007Z,11.25
2023-02-26T18:20:16.704Z,11.30
2023-02-26T18:23:23.159Z,11.35
2023-02-26T18:26:32.732Z,11.32
2023-02-26T18:29:40.533Z,11.13
2023-02-26T18:32:46.811Z,11.18
2023-02-26T18:35:56.782Z,11.24
2023-02-26T18:39:03.845Z,11.03
2023-02-26T18:42:19.036Z,11.04
2023-02-26T18:45:26.528Z,11.10
2023-02-26T18:48:32.772Z,10.95
2023-02-26T18:51:38.879Z,10.99
2023-02-26T18:54:45.286Z,11.02
2023-02-26T18:57:51.691Z,11.02
2023-02-26T19:01:00.430Z,10.96
2023-02-26T19:04:07.703Z,10.96
2023-02-26T19:07:14.160Z,10.82
2023-02-26T19:10:21.273Z,10.89
2023-02-26T19:13:29.281Z,11.00
2023-02-26T19:16:39.458Z,10.86
2023-02-26T19:19:45.611Z,10.97
2023-02-26T19:22:52.134Z,10.89
2023-02-26T19:25:58.273Z,10.93
2023-02-26T19:29:05.233Z,10.94
2023-02-26T19:32:13.793Z,10.95
2023-02-26T19:35:20.209Z,10.97
2023-02-26T19:38:26.597Z,11.06
2023-02-26T19:41:33.688Z,10.92
2023-02-26T19:44:40.237Z,10.98
2023-02-26T19:47:48.289Z,10.97
2023-02-26T19:50:56.667Z,10.90
2023-02-26T19:54:03.201Z,11.00
2023-02-26T19:57:09.620Z,10.86
2023-02-26T20:00:17.839Z,10.94
2023-02-26T20:03:25.848Z,10.88
2023-02-26T20:06:32.394Z,10.79
2023-02-26T20:09:38.728Z,10.76
2023-02-26T20:12:46.429Z,10.73
2023-02-26T20:15:53.685Z,10.73
2023-02-26T20:19:01.805Z,10.86
2023-02-26T20:22:08.191Z,10.79
2023-02-26T20:25:15.011Z,10.84
2023-02-26T20:28:21.382Z,10.81
2023-02-26T20:31:28.009Z,10.84
2023-02-26T20:34:36.014Z,10.98
2023-02-26T20:37:43.168Z,10.90
2023-02-26T20:40:49.759Z,10.90
2023-02-26T20:43:58.593Z,10.96
2023-02-26T20:47:05.254Z,10.83
2023-02-26T20:50:13.473Z,10.90
2023-02-26T20:53:21.594Z,11.00
2023-02-26T20:56:27.955Z,10.98
2023-02-26T20:59:34.517Z,11.05
2023-02-26T21:02:40.815Z,11.01
2023-02-26T21:05:48.561Z,11.05
2023-02-26T21:08:54.780Z,11.10
2023-02-26T21:12:00.869Z,11.10
2023-02-26T21:15:10.467Z,11.16
2023-02-26T21:18:16.671Z,11.21
2023-02-26T21:21:24.799Z,11.12
2023-02-26T21:24:31.772Z,11.06
2023-02-26T21:27:38.181Z,11.10
2023-02-26T21:30:44.289Z,10.95
2023-02-26T21:33:50.552Z,10.88
2023-02-26T21:36:58.263Z,10.91
2023-02-26T21:40:06.730Z,10.93
2023-02-26T21:43:13.360Z,10.98
2023-02-26T21:46:19.668Z,10.97
2023-02-26T21:49:26.699Z,11.00
2023-02-26T21:52:34.540Z,10.83
2023-02-26T21:55:40.909Z,10.82
2023-02-26T21:58:48.079Z,10.86
2023-02-26T22:01:55.091Z,10.83
2023-02-26T22:05:01.625Z,10.87
2023-02-26T22:08:09.423Z,10.79
2023-02-26T22:11:16.084Z,10.82
2023-02-26T22:14:22.506Z,10.77
2023-02-26T22:17:30.969Z,10.73
2023-02-26T22:20:37.895Z,10.69
2023-02-26T22:23:45.659Z,10.65
2023-02-26T22:26:52.368Z,10.65
2023-02-26T22:29:58.886Z,10.59
2023-02-26T22:33:04.996Z,10.62
2023-02-26T22:36:11.676Z,10.53
2023-02-26T22:39:19.770Z,10.62
2023-02-26T22:42:26.078Z,10.46
2023-02-26T22:45:32.306Z,10.47
2023-02-26T22:48:38.511Z,10.52
2023-02-26T22:51:44.884Z,10.66
2023-02-26T22:54:52.517Z,10.61
2023-02-26T22:57:58.993Z,10.49
2023-02-26T23:01:07.172Z,10.57
2023-02-26T23:04:13.570Z,10.58
2023-02-26T23:07:20.646Z,10.46
2023-02-26T23:10:28.409Z,10.58
2023-02-26T23:13:36.198Z,10.58
2023-02-26T23:16:42.946Z,10.61
2023-02-26T23:19:49.273Z,10.58
2023-02-26T23:22:55.964Z,10.66
2023-02-26T23:26:03.910Z,10.57
2023-02-26T23:29:10.492Z,10.57
2023-02-26T23:32:17.141Z,10.61
2023-02-26T23:35:23.560Z,10.57
2023-02-26T23:38:30.174Z,10.44
2023-02-26T23:41:38.015Z,10.48
2023-02-26T23:44:44.479Z,10.37
2023-02-26T23:47:50.660Z,10.34
2023-02-26T23:50:57.163Z,10.39
2023-02-26T23:54:03.750Z,10.43
2023-02-26T23:57:11.369Z,10.24
